logo
Search for airport 
image banner adimage banner adimage banner ad
image banner ad

SBIZ - Prefeito Renato Moreira

Located in Imperatriz, Brazil

ICAO - SBIZ, IATA - IMP

Data provided by Airmate  

General information

Coordinates: S5°31'50" W47°27'30"
Elevation is 429 feet MSL.
Magnetic variation is -21.073590381° East
View others Airports in Maranhão

Operational data

Special qualification required
Current time UTC:
Current local time:
Weather
METAR: SBIZ 220800Z 21001KT CAVOK 24/23 Q1012
TAF: TAF SBIZ 220220Z 2206/2218 07005KT 9999 SCT020 TN24/2208Z TX33/2218Z BECMG 2212/2214 10005KT RMK PGW
View NOTAMs / SUP AIP / TFR affecting this airport [VIEW]
Communications frequencies: [VIEW]

Runways:

RWY identifierQFULength (ft)Width (ft)SurfaceLDA (ft)
256293919ASPH
076293919ASPH

Airport contact information

Address: Imperatriz Brazil

Satellite view of SBIZ